Wayne, Montana
Current Conditions -  °F | °C
As of 10:56 AM on Sunday 21 Dec 2014 (Local Time) from KGFA Reporting Station
Scattered Clouds Scattered Clouds  
Wind Chill: 39°   Ceiling: Unl
Heat Index: 46°   Visibility: 10mi
Dew Point: 31°   Wind: 17mph
Humidity: 56%   Direction: 240°WSW
Pressure: 29.4"   Gusts: 25mph
Location:  47.3298°N, 110.893°W
Report Text: KGFA 211756Z AUTO 24015G22KT 10SM SCT170 08/M01 A2940 RMK AO2 SLP972 T00771007 10081 20042 52014
Loading
Personal Weather Stations






























Interactive Weather Map New forecast layout! Learn more

10-Day Weather Forecast

Advertisements
Track Severe Weather on mobile